sensor_id;sensor_type;location;lat;lon;timestamp;pressure;altitude;pressure_sealevel;temperature;humidity
51468;BME280;37545;45.302;-122.946;2023-03-26T00:01:29;101891.63;;;10.22;57.84
51468;BME280;37545;45.302;-122.946;2023-03-26T00:03:59;101885.16;;;10.14;57.38
51468;BME280;37545;45.302;-122.946;2023-03-26T00:06:29;101881.03;;;10.00;57.54
51468;BME280;37545;45.302;-122.946;2023-03-26T00:09:00;101896.66;;;9.85;58.03
51468;BME280;37545;45.302;-122.946;2023-03-26T00:11:29;101894.09;;;9.69;60.71
51468;BME280;37545;45.302;-122.946;2023-03-26T00:13:58;101880.22;;;9.50;59.64
51468;BME280;37545;45.302;-122.946;2023-03-26T00:16:30;101892.50;;;9.38;60.96
51468;BME280;37545;45.302;-122.946;2023-03-26T00:19:02;101897.91;;;9.26;61.66
51468;BME280;37545;45.302;-122.946;2023-03-26T00:21:31;101897.44;;;9.17;62.11
51468;BME280;37545;45.302;-122.946;2023-03-26T00:24:02;101889.19;;;9.08;63.13
51468;BME280;37545;45.302;-122.946;2023-03-26T00:26:35;101877.25;;;8.93;62.93
51468;BME280;37545;45.302;-122.946;2023-03-26T00:29:06;101885.88;;;9.10;63.32
51468;BME280;37545;45.302;-122.946;2023-03-26T00:31:43;101883.69;;;9.18;61.22
51468;BME280;37545;45.302;-122.946;2023-03-26T00:34:12;101890.16;;;9.26;62.00
51468;BME280;37545;45.302;-122.946;2023-03-26T00:36:43;101878.22;;;9.28;61.62
51468;BME280;37545;45.302;-122.946;2023-03-26T00:39:13;101880.41;;;9.37;61.58
51468;BME280;37545;45.302;-122.946;2023-03-26T00:41:43;101887.72;;;9.46;61.41
51468;BME280;37545;45.302;-122.946;2023-03-26T00:44:12;101878.69;;;9.54;61.44
51468;BME280;37545;45.302;-122.946;2023-03-26T00:46:42;101879.81;;;9.59;61.61
51468;BME280;37545;45.302;-122.946;2023-03-26T00:49:11;101868.69;;;9.60;60.21
51468;BME280;37545;45.302;-122.946;2023-03-26T00:51:40;101879.50;;;9.69;61.29
51468;BME280;37545;45.302;-122.946;2023-03-26T00:54:09;101877.28;;;9.77;61.52
51468;BME280;37545;45.302;-122.946;2023-03-26T00:56:38;101875.66;;;9.79;61.00
51468;BME280;37545;45.302;-122.946;2023-03-26T00:59:07;101884.13;;;9.93;60.84
51468;BME280;37545;45.302;-122.946;2023-03-26T01:01:36;101881.16;;;10.03;60.69
51468;BME280;37545;45.302;-122.946;2023-03-26T01:04:25;101876.22;;;10.07;59.61
51468;BME280;37545;45.302;-122.946;2023-03-26T01:06:56;101881.69;;;10.14;58.92
51468;BME280;37545;45.302;-122.946;2023-03-26T01:09:33;101895.50;;;10.14;59.16
51468;BME280;37545;45.302;-122.946;2023-03-26T01:12:05;101898.78;;;10.10;61.49
51468;BME280;37545;45.302;-122.946;2023-03-26T01:14:35;101880.56;;;9.91;61.78
51468;BME280;37545;45.302;-122.946;2023-03-26T01:17:05;101888.22;;;9.71;65.84
51468;BME280;37545;45.302;-122.946;2023-03-26T01:19:41;101883.50;;;9.64;64.69
51468;BME280;37545;45.302;-122.946;2023-03-26T01:22:15;101892.31;;;9.68;62.37
51468;BME280;37545;45.302;-122.946;2023-03-26T01:24:46;101886.91;;;9.63;64.88
51468;BME280;37545;45.302;-122.946;2023-03-26T01:27:26;101887.47;;;9.57;66.71
51468;BME280;37545;45.302;-122.946;2023-03-26T01:30:00;101891.38;;;9.49;65.58
51468;BME280;37545;45.302;-122.946;2023-03-26T01:32:44;101890.03;;;9.39;64.02
51468;BME280;37545;45.302;-122.946;2023-03-26T01:35:22;101885.25;;;9.31;67.77
51468;BME280;37545;45.302;-122.946;2023-03-26T01:38:05;101888.56;;;9.28;66.16
51468;BME280;37545;45.302;-122.946;2023-03-26T01:40:42;101882.91;;;9.19;65.06
51468;BME280;37545;45.302;-122.946;2023-03-26T01:43:19;101881.44;;;9.08;66.82
51468;BME280;37545;45.302;-122.946;2023-03-26T01:45:52;101885.41;;;9.01;66.19
51468;BME280;37545;45.302;-122.946;2023-03-26T01:48:28;101892.78;;;8.95;65.60
51468;BME280;37545;45.302;-122.946;2023-03-26T01:50:58;101889.81;;;8.87;66.60
51468;BME280;37545;45.302;-122.946;2023-03-26T01:53:27;101893.03;;;8.83;68.99
51468;BME280;37545;45.302;-122.946;2023-03-26T01:56:02;101907.22;;;8.60;68.33
51468;BME280;37545;45.302;-122.946;2023-03-26T01:58:36;101926.13;;;8.44;70.85
51468;BME280;37545;45.302;-122.946;2023-03-26T02:01:17;101937.81;;;8.24;73.21
51468;BME280;37545;45.302;-122.946;2023-03-26T02:03:58;101944.13;;;7.85;71.33
51468;BME280;37545;45.302;-122.946;2023-03-26T02:06:33;101938.94;;;7.42;72.52
51468;BME280;37545;45.302;-122.946;2023-03-26T02:09:07;101943.97;;;7.12;74.91
51468;BME280;37545;45.302;-122.946;2023-03-26T02:11:43;101935.91;;;6.92;77.75
51468;BME280;37545;45.302;-122.946;2023-03-26T02:14:12;101933.16;;;6.76;79.97
51468;BME280;37545;45.302;-122.946;2023-03-26T02:16:42;101927.22;;;6.64;83.07
51468;BME280;37545;45.302;-122.946;2023-03-26T02:19:12;101922.88;;;6.49;85.56
51468;BME280;37545;45.302;-122.946;2023-03-26T02:21:47;101928.41;;;6.42;88.42
51468;BME280;37545;45.302;-122.946;2023-03-26T02:24:17;101922.78;;;6.35;90.95
51468;BME280;37545;45.302;-122.946;2023-03-26T02:26:47;101921.69;;;6.31;92.31
51468;BME280;37545;45.302;-122.946;2023-03-26T02:29:16;101935.94;;;6.26;93.24
51468;BME280;37545;45.302;-122.946;2023-03-26T02:31:46;101930.19;;;6.17;93.64
51468;BME280;37545;45.302;-122.946;2023-03-26T02:34:15;101923.22;;;6.02;93.43
51468;BME280;37545;45.302;-122.946;2023-03-26T02:36:44;101927.63;;;5.92;94.17
51468;BME280;37545;45.302;-122.946;2023-03-26T02:39:13;101933.53;;;5.91;95.25
51468;BME280;37545;45.302;-122.946;2023-03-26T02:41:42;101941.47;;;5.94;95.30
51468;BME280;37545;45.302;-122.946;2023-03-26T02:44:13;101940.47;;;5.92;94.36
51468;BME280;37545;45.302;-122.946;2023-03-26T02:46:41;101949.16;;;5.94;94.69
51468;BME280;37545;45.302;-122.946;2023-03-26T02:49:10;101943.91;;;5.92;94.24
51468;BME280;37545;45.302;-122.946;2023-03-26T02:51:39;101931.03;;;5.79;94.77
51468;BME280;37545;45.302;-122.946;2023-03-26T02:54:08;101949.63;;;5.88;95.75
51468;BME280;37545;45.302;-122.946;2023-03-26T02:56:38;101935.59;;;5.83;95.82
51468;BME280;37545;45.302;-122.946;2023-03-26T02:59:06;101951.69;;;5.80;95.20
51468;BME280;37545;45.302;-122.946;2023-03-26T03:01:36;101945.25;;;5.74;96.17
51468;BME280;37545;45.302;-122.946;2023-03-26T03:04:08;101959.09;;;5.76;97.90
51468;BME280;37545;45.302;-122.946;2023-03-26T03:06:37;101954.16;;;5.79;98.72
51468;BME280;37545;45.302;-122.946;2023-03-26T03:09:09;101955.81;;;5.78;98.08
51468;BME280;37545;45.302;-122.946;2023-03-26T03:11:39;101950.75;;;5.66;98.54
51468;BME280;37545;45.302;-122.946;2023-03-26T03:14:08;101954.69;;;5.61;99.89
51468;BME280;37545;45.302;-122.946;2023-03-26T03:16:38;101947.31;;;5.54;99.44
51468;BME280;37545;45.302;-122.946;2023-03-26T03:19:07;101945.13;;;5.47;99.63
51468;BME280;37545;45.302;-122.946;2023-03-26T03:21:36;101956.19;;;5.46;100.00
51468;BME280;37545;45.302;-122.946;2023-03-26T03:24:05;101952.31;;;5.39;100.00
51468;BME280;37545;45.302;-122.946;2023-03-26T03:26:34;101953.97;;;5.39;100.00
51468;BME280;37545;45.302;-122.946;2023-03-26T03:29:03;101945.84;;;5.33;100.00
51468;BME280;37545;45.302;-122.946;2023-03-26T03:31:32;101969.03;;;5.46;100.00
51468;BME280;37545;45.302;-122.946;2023-03-26T03:34:02;101971.03;;;5.50;100.00
51468;BME280;37545;45.302;-122.946;2023-03-26T03:36:31;101966.97;;;5.54;100.00
51468;BME280;37545;45.302;-122.946;2023-03-26T03:39:04;101965.09;;;5.51;100.00
51468;BME280;37545;45.302;-122.946;2023-03-26T03:41:33;101963.41;;;5.52;100.00
51468;BME280;37545;45.302;-122.946;2023-03-26T03:44:01;101970.22;;;5.51;100.00
51468;BME280;37545;45.302;-122.946;2023-03-26T03:46:30;101974.28;;;5.48;100.00
51468;BME280;37545;45.302;-122.946;2023-03-26T03:48:59;101972.59;;;5.48;100.00
51468;BME280;37545;45.302;-122.946;2023-03-26T03:51:29;101972.78;;;5.51;100.00
51468;BME280;37545;45.302;-122.946;2023-03-26T03:53:57;101969.22;;;5.49;100.00
51468;BME280;37545;45.302;-122.946;2023-03-26T03:56:26;101973.00;;;5.54;100.00
51468;BME280;37545;45.302;-122.946;2023-03-26T03:58:55;101983.25;;;5.54;100.00
51468;BME280;37545;45.302;-122.946;2023-03-26T04:01:25;101985.94;;;5.56;100.00
51468;BME280;37545;45.302;-122.946;2023-03-26T04:03:56;101985.06;;;5.55;100.00
51468;BME280;37545;45.302;-122.946;2023-03-26T04:06:25;101983.38;;;5.56;100.00
51468;BME280;37545;45.302;-122.946;2023-03-26T04:08:57;101989.19;;;5.53;100.00
51468;BME280;37545;45.302;-122.946;2023-03-26T04:11:26;101991.78;;;5.53;100.00
51468;BME280;37545;45.302;-122.946;2023-03-26T04:13:55;101988.19;;;5.51;100.00
51468;BME280;37545;45.302;-122.946;2023-03-26T04:16:23;101984.63;;;5.49;100.00
51468;BME280;37545;45.302;-122.946;2023-03-26T04:18:52;101986.00;;;5.44;100.00
51468;BME280;37545;45.302;-122.946;2023-03-26T04:21:22;101991.94;;;5.43;100.00
51468;BME280;37545;45.302;-122.946;2023-03-26T04:23:51;101996.25;;;5.44;100.00
51468;BME280;37545;45.302;-122.946;2023-03-26T04:26:22;101996.72;;;5.38;100.00
51468;BME280;37545;45.302;-122.946;2023-03-26T04:28:53;102005.88;;;5.35;100.00
51468;BME280;37545;45.302;-122.946;2023-03-26T04:31:24;102009.44;;;5.37;100.00
51468;BME280;37545;45.302;-122.946;2023-03-26T04:33:55;102000.28;;;5.40;100.00
51468;BME280;37545;45.302;-122.946;2023-03-26T04:36:27;102006.09;;;5.38;100.00
51468;BME280;37545;45.302;-122.946;2023-03-26T04:38:59;101999.09;;;5.23;100.00
51468;BME280;37545;45.302;-122.946;2023-03-26T04:41:32;102003.69;;;5.16;100.00
51468;BME280;37545;45.302;-122.946;2023-03-26T04:44:01;102011.16;;;5.13;100.00
51468;BME280;37545;45.302;-122.946;2023-03-26T04:46:30;101999.56;;;5.06;100.00
51468;BME280;37545;45.302;-122.946;2023-03-26T04:49:00;102013.31;;;5.07;100.00
51468;BME280;37545;45.302;-122.946;2023-03-26T04:51:35;102011.63;;;5.07;100.00
51468;BME280;37545;45.302;-122.946;2023-03-26T04:54:08;102015.75;;;5.05;100.00
51468;BME280;37545;45.302;-122.946;2023-03-26T04:56:44;102022.44;;;5.03;100.00
51468;BME280;37545;45.302;-122.946;2023-03-26T04:59:18;102025.00;;;5.03;100.00
51468;BME280;37545;45.302;-122.946;2023-03-26T05:01:52;102026.69;;;5.02;100.00
51468;BME280;37545;45.302;-122.946;2023-03-26T05:04:25;102035.13;;;5.01;100.00
51468;BME280;37545;45.302;-122.946;2023-03-26T05:06:55;102037.81;;;5.03;100.00
51468;BME280;37545;45.302;-122.946;2023-03-26T05:09:25;102044.09;;;5.07;100.00
51468;BME280;37545;45.302;-122.946;2023-03-26T05:11:56;102048.00;;;5.13;100.00
51468;BME280;37545;45.302;-122.946;2023-03-26T05:14:24;102038.69;;;5.15;100.00
51468;BME280;37545;45.302;-122.946;2023-03-26T05:16:53;102051.31;;;5.24;100.00
51468;BME280;37545;45.302;-122.946;2023-03-26T05:19:22;102060.13;;;5.28;100.00
51468;BME280;37545;45.302;-122.946;2023-03-26T05:21:51;102053.44;;;5.30;100.00
51468;BME280;37545;45.302;-122.946;2023-03-26T05:24:20;102047.50;;;5.31;100.00
51468;BME280;37545;45.302;-122.946;2023-03-26T05:26:50;102054.44;;;5.32;100.00
51468;BME280;37545;45.302;-122.946;2023-03-26T05:29:23;102052.88;;;5.34;100.00
51468;BME280;37545;45.302;-122.946;2023-03-26T05:31:52;102060.56;;;5.34;100.00
51468;BME280;37545;45.302;-122.946;2023-03-26T05:34:21;102070.59;;;5.31;100.00
51468;BME280;37545;45.302;-122.946;2023-03-26T05:36:52;102047.50;;;5.31;100.00
51468;BME280;37545;45.302;-122.946;2023-03-26T05:39:21;102053.84;;;5.36;100.00
51468;BME280;37545;45.302;-122.946;2023-03-26T05:41:52;102055.66;;;5.37;100.00
51468;BME280;37545;45.302;-122.946;2023-03-26T05:44:22;102048.84;;;5.37;100.00
51468;BME280;37545;45.302;-122.946;2023-03-26T05:46:51;102047.94;;;5.37;100.00
51468;BME280;37545;45.302;-122.946;2023-03-26T05:49:20;102052.28;;;5.38;100.00
51468;BME280;37545;45.302;-122.946;2023-03-26T05:51:49;102047.16;;;5.38;100.00
51468;BME280;37545;45.302;-122.946;2023-03-26T05:54:18;102039.81;;;5.31;100.00
51468;BME280;37545;45.302;-122.946;2023-03-26T05:56:47;102053.84;;;5.36;100.00
51468;BME280;37545;45.302;-122.946;2023-03-26T05:59:16;102059.78;;;5.35;100.00
51468;BME280;37545;45.302;-122.946;2023-03-26T06:01:46;102045.72;;;5.30;100.00
51468;BME280;37545;45.302;-122.946;2023-03-26T06:04:17;102043.06;;;5.28;100.00
51468;BME280;37545;45.302;-122.946;2023-03-26T06:06:46;102048.19;;;5.28;100.00
51468;BME280;37545;45.302;-122.946;2023-03-26T06:09:14;102055.66;;;5.25;100.00
51468;BME280;37545;45.302;-122.946;2023-03-26T06:11:43;102043.81;;;5.15;100.00
51468;BME280;37545;45.302;-122.946;2023-03-26T06:14:12;102041.84;;;5.11;100.00
51468;BME280;37545;45.302;-122.946;2023-03-26T06:16:41;102056.56;;;5.14;100.00
51468;BME280;37545;45.302;-122.946;2023-03-26T06:19:12;102055.44;;;5.10;100.00
51468;BME280;37545;45.302;-122.946;2023-03-26T06:21:41;102053.66;;;5.09;100.00
51468;BME280;37545;45.302;-122.946;2023-03-26T06:24:10;102043.75;;;5.02;100.00
51468;BME280;37545;45.302;-122.946;2023-03-26T06:26:38;102055.56;;;5.00;100.00
51468;BME280;37545;45.302;-122.946;2023-03-26T06:29:07;102048.44;;;4.96;100.00
51468;BME280;37545;45.302;-122.946;2023-03-26T06:31:36;102049.97;;;4.94;100.00
51468;BME280;37545;45.302;-122.946;2023-03-26T06:34:05;102057.47;;;4.91;100.00
51468;BME280;37545;45.302;-122.946;2023-03-26T06:36:35;102051.31;;;4.89;100.00
51468;BME280;37545;45.302;-122.946;2023-03-26T06:39:04;102054.66;;;4.88;100.00
51468;BME280;37545;45.302;-122.946;2023-03-26T06:41:33;102059.56;;;4.85;100.00
51468;BME280;37545;45.302;-122.946;2023-03-26T06:44:02;102062.69;;;4.80;100.00
51468;BME280;37545;45.302;-122.946;2023-03-26T06:46:30;102063.13;;;4.75;100.00
51468;BME280;37545;45.302;-122.946;2023-03-26T06:48:59;102047.28;;;4.57;100.00
51468;BME280;37545;45.302;-122.946;2023-03-26T06:51:28;102060.78;;;4.66;100.00
51468;BME280;37545;45.302;-122.946;2023-03-26T06:53:58;102062.34;;;4.64;100.00
51468;BME280;37545;45.302;-122.946;2023-03-26T06:56:27;102067.13;;;4.59;100.00
51468;BME280;37545;45.302;-122.946;2023-03-26T06:58:56;102069.34;;;4.55;100.00
51468;BME280;37545;45.302;-122.946;2023-03-26T07:01:25;102081.16;;;4.53;100.00
51468;BME280;37545;45.302;-122.946;2023-03-26T07:03:54;102072.09;;;4.46;100.00
51468;BME280;37545;45.302;-122.946;2023-03-26T07:06:24;102072.00;;;4.45;100.00
51468;BME280;37545;45.302;-122.946;2023-03-26T07:08:52;102077.91;;;4.44;100.00
51468;BME280;37545;45.302;-122.946;2023-03-26T07:11:24;102079.63;;;4.33;100.00
51468;BME280;37545;45.302;-122.946;2023-03-26T07:13:53;102082.41;;;4.24;100.00
51468;BME280;37545;45.302;-122.946;2023-03-26T07:16:24;102078.50;;;4.17;100.00
51468;BME280;37545;45.302;-122.946;2023-03-26T07:18:53;102074.03;;;4.15;100.00
51468;BME280;37545;45.302;-122.946;2023-03-26T07:21:23;102075.56;;;4.13;100.00
51468;BME280;37545;45.302;-122.946;2023-03-26T07:23:52;102071.13;;;4.10;100.00
51468;BME280;37545;45.302;-122.946;2023-03-26T07:26:33;102076.47;;;4.13;100.00
51468;BME280;37545;45.302;-122.946;2023-03-26T07:29:10;102072.75;;;4.10;100.00
51468;BME280;37545;45.302;-122.946;2023-03-26T07:31:47;102070.09;;;4.08;100.00
51468;BME280;37545;45.302;-122.946;2023-03-26T07:34:31;102075.31;;;4.10;100.00
51468;BME280;37545;45.302;-122.946;2023-03-26T07:37:08;102077.13;;;4.11;100.00
51468;BME280;37545;45.302;-122.946;2023-03-26T07:39:45;102073.78;;;4.12;100.00
51468;BME280;37545;45.302;-122.946;2023-03-26T07:42:30;102084.03;;;4.12;100.00
51468;BME280;37545;45.302;-122.946;2023-03-26T07:45:12;102080.94;;;4.16;100.00
51468;BME280;37545;45.302;-122.946;2023-03-26T07:47:44;102079.91;;;4.14;100.00
51468;BME280;37545;45.302;-122.946;2023-03-26T07:50:16;102080.78;;;4.14;100.00
51468;BME280;37545;45.302;-122.946;2023-03-26T07:52:46;102074.56;;;4.11;100.00
51468;BME280;37545;45.302;-122.946;2023-03-26T07:55:16;102083.25;;;4.13;100.00
51468;BME280;37545;45.302;-122.946;2023-03-26T07:57:55;102078.44;;;4.06;100.00
51468;BME280;37545;45.302;-122.946;2023-03-26T08:00:32;102072.19;;;4.02;100.00
51468;BME280;37545;45.302;-122.946;2023-03-26T08:03:19;102076.94;;;3.97;100.00
51468;BME280;37545;45.302;-122.946;2023-03-26T08:06:05;102087.31;;;3.99;100.00
51468;BME280;37545;45.302;-122.946;2023-03-26T08:08:41;102086.41;;;3.98;100.00
51468;BME280;37545;45.302;-122.946;2023-03-26T08:11:23;102086.41;;;3.98;100.00
51468;BME280;37545;45.302;-122.946;2023-03-26T08:14:23;102089.63;;;3.96;100.00
51468;BME280;37545;45.302;-122.946;2023-03-26T08:16:58;102088.16;;;3.88;100.00
51468;BME280;37545;45.302;-122.946;2023-03-26T08:19:44;102081.44;;;3.78;100.00
51468;BME280;37545;45.302;-122.946;2023-03-26T08:22:18;102076.22;;;3.66;100.00
51468;BME280;37545;45.302;-122.946;2023-03-26T08:25:04;102075.63;;;3.59;100.00
51468;BME280;37545;45.302;-122.946;2023-03-26T08:27:38;102078.97;;;3.58;100.00
51468;BME280;37545;45.302;-122.946;2023-03-26T08:30:14;102073.72;;;3.56;100.00
51468;BME280;37545;45.302;-122.946;2023-03-26T08:32:49;102082.53;;;3.60;100.00
51468;BME280;37545;45.302;-122.946;2023-03-26T08:35:20;102085.22;;;3.61;100.00
51468;BME280;37545;45.302;-122.946;2023-03-26T08:37:49;102081.75;;;3.61;100.00
51468;BME280;37545;45.302;-122.946;2023-03-26T08:40:36;102090.19;;;3.60;100.00
51468;BME280;37545;45.302;-122.946;2023-03-26T08:43:27;102091.88;;;3.59;100.00
51468;BME280;37545;45.302;-122.946;2023-03-26T08:49:33;102080.16;;;3.51;100.00
51468;BME280;37545;45.302;-122.946;2023-03-26T08:52:42;102081.69;;;3.49;100.00
51468;BME280;37545;45.302;-122.946;2023-03-26T08:55:33;102083.63;;;3.41;100.00
51468;BME280;37545;45.302;-122.946;2023-03-26T09:01:31;102079.16;;;3.39;100.00
51468;BME280;37545;45.302;-122.946;2023-03-26T09:10:32;102077.53;;;3.29;100.00
51468;BME280;37545;45.302;-122.946;2023-03-26T09:13:32;102084.94;;;3.36;100.00
51468;BME280;37545;45.302;-122.946;2023-03-26T09:16:27;102081.25;;;3.32;100.00
51468;BME280;37545;45.302;-122.946;2023-03-26T09:22:57;102080.63;;;3.25;100.00
51468;BME280;37545;45.302;-122.946;2023-03-26T09:25:52;102081.63;;;3.27;100.00
51468;BME280;37545;45.302;-122.946;2023-03-26T09:28:51;102085.00;;;3.26;100.00
51468;BME280;37545;45.302;-122.946;2023-03-26T09:31:47;102084.19;;;3.27;100.00
51468;BME280;37545;45.302;-122.946;2023-03-26T09:34:30;102063.00;;;3.18;100.00
51468;BME280;37545;45.302;-122.946;2023-03-26T09:37:17;102078.06;;;3.25;100.00
51468;BME280;37545;45.302;-122.946;2023-03-26T09:40:10;102075.94;;;3.19;100.00
51468;BME280;37545;45.302;-122.946;2023-03-26T09:42:44;102079.38;;;3.20;100.00
51468;BME280;37545;45.302;-122.946;2023-03-26T09:45:31;102079.38;;;3.20;100.00
51468;BME280;37545;45.302;-122.946;2023-03-26T09:48:25;102076.31;;;3.13;100.00
51468;BME280;37545;45.302;-122.946;2023-03-26T09:51:05;102073.16;;;3.06;100.00
51468;BME280;37545;45.302;-122.946;2023-03-26T09:53:50;102087.22;;;3.01;100.00
51468;BME280;37545;45.302;-122.946;2023-03-26T09:56:32;102077.66;;;2.98;100.00
51468;BME280;37545;45.302;-122.946;2023-03-26T10:01:57;102083.13;;;3.03;100.00
51468;BME280;37545;45.302;-122.946;2023-03-26T10:04:35;102089.13;;;3.03;100.00
51468;BME280;37545;45.302;-122.946;2023-03-26T10:07:20;102092.72;;;3.05;100.00
51468;BME280;37545;45.302;-122.946;2023-03-26T10:10:00;102083.25;;;3.04;100.00
51468;BME280;37545;45.302;-122.946;2023-03-26T10:12:35;102087.47;;;3.04;100.00
51468;BME280;37545;45.302;-122.946;2023-03-26T10:15:20;102087.22;;;3.01;100.00
51468;BME280;37545;45.302;-122.946;2023-03-26T10:18:04;102091.19;;;2.97;100.00
51468;BME280;37545;45.302;-122.946;2023-03-26T10:20:48;102096.44;;;2.99;100.00
51468;BME280;37545;45.302;-122.946;2023-03-26T10:23:37;102092.06;;;2.98;100.00
51468;BME280;37545;45.302;-122.946;2023-03-26T10:26:20;102080.22;;;2.88;100.00
51468;BME280;37545;45.302;-122.946;2023-03-26T10:29:13;102092.47;;;2.92;100.00
51468;BME280;37545;45.302;-122.946;2023-03-26T10:31:45;102095.69;;;2.89;100.00
51468;BME280;37545;45.302;-122.946;2023-03-26T10:34:42;102092.34;;;2.90;100.00
51468;BME280;37545;45.302;-122.946;2023-03-26T10:37:16;102090.19;;;2.85;100.00
51468;BME280;37545;45.302;-122.946;2023-03-26T10:39:59;102086.25;;;2.78;100.00
51468;BME280;37545;45.302;-122.946;2023-03-26T10:45:34;102094.94;;;2.70;100.00
51468;BME280;37545;45.302;-122.946;2023-03-26T10:48:19;102099.38;;;2.72;100.00
51468;BME280;37545;45.302;-122.946;2023-03-26T10:51:33;102099.53;;;2.74;100.00
51468;BME280;37545;45.302;-122.946;2023-03-26T10:54:09;102097.84;;;2.75;100.00
51468;BME280;37545;45.302;-122.946;2023-03-26T10:56:44;102093.03;;;2.78;100.00
51468;BME280;37545;45.302;-122.946;2023-03-26T10:59:15;102093.03;;;2.78;100.00
51468;BME280;37545;45.302;-122.946;2023-03-26T11:01:49;102096.59;;;2.80;100.00
51468;BME280;37545;45.302;-122.946;2023-03-26T11:04:29;102100.16;;;2.82;100.00
51468;BME280;37545;45.302;-122.946;2023-03-26T11:07:08;102100.41;;;2.85;100.00
51468;BME280;37545;45.302;-122.946;2023-03-26T11:09:44;102101.44;;;2.87;100.00
51468;BME280;37545;45.302;-122.946;2023-03-26T11:12:22;102085.47;;;2.89;100.00
51468;BME280;37545;45.302;-122.946;2023-03-26T11:15:01;102097.59;;;2.92;100.00
51468;BME280;37545;45.302;-122.946;2023-03-26T11:17:42;102096.56;;;2.90;100.00
51468;BME280;37545;45.302;-122.946;2023-03-26T11:20:17;102089.16;;;2.83;100.00
51468;BME280;37545;45.302;-122.946;2023-03-26T11:22:57;102089.53;;;2.77;100.00
51468;BME280;37545;45.302;-122.946;2023-03-26T11:25:45;102096.69;;;2.81;100.00
51468;BME280;37545;45.302;-122.946;2023-03-26T11:28:26;102080.88;;;2.75;100.00
51468;BME280;37545;45.302;-122.946;2023-03-26T11:31:03;102099.63;;;2.86;100.00
51468;BME280;37545;45.302;-122.946;2023-03-26T11:33:41;102101.31;;;2.85;100.00
51468;BME280;37545;45.302;-122.946;2023-03-26T11:36:14;102093.78;;;2.87;100.00
51468;BME280;37545;45.302;-122.946;2023-03-26T11:38:45;102101.69;;;2.90;100.00
51468;BME280;37545;45.302;-122.946;2023-03-26T11:41:17;102095.03;;;2.92;100.00
51468;BME280;37545;45.302;-122.946;2023-03-26T11:43:50;102087.63;;;2.85;100.00
51468;BME280;37545;45.302;-122.946;2023-03-26T11:46:22;102096.81;;;2.93;100.00
51468;BME280;37545;45.302;-122.946;2023-03-26T11:48:56;102101.91;;;2.93;100.00
51468;BME280;37545;45.302;-122.946;2023-03-26T11:51:29;102094.38;;;2.94;100.00
51468;BME280;37545;45.302;-122.946;2023-03-26T11:53:59;102103.22;;;2.98;100.00
51468;BME280;37545;45.302;-122.946;2023-03-26T11:56:31;102102.56;;;3.01;100.00
51468;BME280;37545;45.302;-122.946;2023-03-26T11:59:03;102096.28;;;2.97;100.00
51468;BME280;37545;45.302;-122.946;2023-03-26T12:01:47;102099.88;;;2.99;100.00
51468;BME280;37545;45.302;-122.946;2023-03-26T12:04:26;102102.44;;;2.99;100.00
51468;BME280;37545;45.302;-122.946;2023-03-26T12:06:56;102108.56;;;3.01;100.00
51468;BME280;37545;45.302;-122.946;2023-03-26T12:09:25;102097.97;;;2.97;100.00
51468;BME280;37545;45.302;-122.946;2023-03-26T12:11:59;102112.00;;;3.02;100.00
51468;BME280;37545;45.302;-122.946;2023-03-26T12:14:32;102108.56;;;3.01;100.00
51468;BME280;37545;45.302;-122.946;2023-03-26T12:17:05;102097.31;;;2.99;100.00
51468;BME280;37545;45.302;-122.946;2023-03-26T12:19:40;102101.13;;;3.04;100.00
51468;BME280;37545;45.302;-122.946;2023-03-26T12:22:28;102097.81;;;3.05;100.00
51468;BME280;37545;45.302;-122.946;2023-03-26T12:25:14;102094.50;;;3.06;100.00
51468;BME280;37545;45.302;-122.946;2023-03-26T12:27:44;102103.41;;;3.11;100.00
51468;BME280;37545;45.302;-122.946;2023-03-26T12:30:20;102101.00;;;3.13;100.00
51468;BME280;37545;45.302;-122.946;2023-03-26T12:32:50;102095.00;;;3.12;100.00
51468;BME280;37545;45.302;-122.946;2023-03-26T12:35:24;102099.97;;;3.11;100.00
51468;BME280;37545;45.302;-122.946;2023-03-26T12:37:55;102100.84;;;3.11;100.00
51468;BME280;37545;45.302;-122.946;2023-03-26T12:40:40;102111.38;;;3.14;100.00
51468;BME280;37545;45.302;-122.946;2023-03-26T12:43:27;102112.47;;;3.18;100.00
51468;BME280;37545;45.302;-122.946;2023-03-26T12:45:57;102115.97;;;3.19;100.00
51468;BME280;37545;45.302;-122.946;2023-03-26T12:48:26;102109.94;;;3.18;100.00
51468;BME280;37545;45.302;-122.946;2023-03-26T12:51:06;102107.91;;;3.14;100.00
51468;BME280;37545;45.302;-122.946;2023-03-26T12:53:51;102108.81;;;3.04;100.00
51468;BME280;37545;45.302;-122.946;2023-03-26T12:56:29;102119.16;;;3.06;100.00
51468;BME280;37545;45.302;-122.946;2023-03-26T12:59:21;102118.53;;;3.08;100.00
51468;BME280;37545;45.302;-122.946;2023-03-26T13:01:59;102118.00;;;3.12;100.00
51468;BME280;37545;45.302;-122.946;2023-03-26T13:04:45;102119.69;;;3.12;100.00
51468;BME280;37545;45.302;-122.946;2023-03-26T13:07:27;102114.06;;;3.06;100.00
51468;BME280;37545;45.302;-122.946;2023-03-26T13:10:22;102112.53;;;3.08;100.00
51468;BME280;37545;45.302;-122.946;2023-03-26T13:13:02;102115.22;;;3.09;100.00
51468;BME280;37545;45.302;-122.946;2023-03-26T13:15:37;102107.53;;;3.09;100.00
51468;BME280;37545;45.302;-122.946;2023-03-26T13:18:19;102114.44;;;3.10;100.00
51468;BME280;37545;45.302;-122.946;2023-03-26T13:20:54;102120.56;;;3.12;100.00
51468;BME280;37545;45.302;-122.946;2023-03-26T13:23:43;102115.59;;;3.14;100.00